createdAt,value
2022-09-20T00:00:42.656Z,6.70
2022-09-20T00:03:10.008Z,6.50
2022-09-20T00:05:37.672Z,6.50
2022-09-20T00:08:05.696Z,6.40
2022-09-20T00:10:39.437Z,6.40
2022-09-20T00:13:06.841Z,6.40
2022-09-20T00:15:34.272Z,6.50
2022-09-20T00:18:00.926Z,6.50
2022-09-20T00:20:27.670Z,6.50
2022-09-20T00:22:54.368Z,6.50
2022-09-20T00:25:22.406Z,6.30
2022-09-20T00:27:48.991Z,6.20
2022-09-20T00:30:15.625Z,8.60
2022-09-20T00:32:42.311Z,6.10
2022-09-20T00:35:10.749Z,6.10
2022-09-20T00:37:39.943Z,6.00
2022-09-20T00:40:08.235Z,6.10
2022-09-20T00:42:35.133Z,5.90
2022-09-20T00:45:03.643Z,5.90
2022-09-20T00:47:30.207Z,5.90
2022-09-20T00:49:59.937Z,8.70
2022-09-20T00:52:27.392Z,5.90
2022-09-20T00:54:54.120Z,7.40
2022-09-20T00:57:20.719Z,5.60
2022-09-20T00:59:49.254Z,6.20
2022-09-20T01:02:18.105Z,6.20
2022-09-20T01:04:46.094Z,7.80
2022-09-20T01:07:14.876Z,6.20
2022-09-20T01:09:41.506Z,6.20
2022-09-20T01:12:12.297Z,6.20
2022-09-20T01:14:39.751Z,6.10
2022-09-20T01:17:07.222Z,6.00
2022-09-20T01:19:47.993Z,6.00
2022-09-20T01:22:38.007Z,5.90
2022-09-20T01:25:23.485Z,5.90
2022-09-20T01:27:51.564Z,5.90
2022-09-20T01:30:24.010Z,6.10
2022-09-20T01:33:09.667Z,6.10
2022-09-20T01:35:36.710Z,6.10
2022-09-20T01:38:15.972Z,8.90
2022-09-20T01:40:47.867Z,6.00
2022-09-20T01:43:21.344Z,6.00
2022-09-20T01:45:49.798Z,6.00
2022-09-20T01:48:30.990Z,6.10
2022-09-20T01:51:03.768Z,6.20
2022-09-20T01:53:39.061Z,6.20
2022-09-20T01:56:24.591Z,6.30
2022-09-20T01:59:22.732Z,6.20
2022-09-20T02:01:58.812Z,6.30
2022-09-20T02:04:45.361Z,6.40
2022-09-20T02:07:20.988Z,6.50
2022-09-20T02:09:47.542Z,6.50
2022-09-20T02:12:14.256Z,6.70
2022-09-20T02:14:57.618Z,6.80
2022-09-20T02:17:43.171Z,6.70
2022-09-20T02:20:18.823Z,6.80
2022-09-20T02:22:45.361Z,6.80
2022-09-20T02:25:23.090Z,6.90
2022-09-20T02:27:56.035Z,7.00
2022-09-20T02:30:35.384Z,7.00
2022-09-20T02:33:16.466Z,6.90
2022-09-20T02:36:01.910Z,6.90
2022-09-20T02:38:36.555Z,6.80
2022-09-20T02:41:03.252Z,6.80
2022-09-20T02:43:36.042Z,6.90
2022-09-20T02:46:02.806Z,6.70
2022-09-20T02:48:58.720Z,6.80
2022-09-20T02:51:33.409Z,6.70
2022-09-20T02:54:18.998Z,6.60
2022-09-20T02:57:00.258Z,6.60
2022-09-20T02:59:35.518Z,6.40
2022-09-20T03:02:20.943Z,6.20
2022-09-20T03:04:58.309Z,6.10
2022-09-20T03:07:43.964Z,5.90
2022-09-20T03:10:15.407Z,5.80
2022-09-20T03:13:01.862Z,5.80
2022-09-20T03:15:28.436Z,5.80
2022-09-20T03:18:13.580Z,5.70
2022-09-20T03:21:00.412Z,5.70
2022-09-20T03:23:45.801Z,5.70
2022-09-20T03:26:23.307Z,5.80
2022-09-20T03:28:57.233Z,5.80
2022-09-20T03:31:48.135Z,5.90
2022-09-20T03:34:21.043Z,6.00
2022-09-20T03:37:23.129Z,6.30
2022-09-20T03:39:53.693Z,6.20
2022-09-20T03:42:23.360Z,6.30
2022-09-20T03:45:01.298Z,6.40
2022-09-20T03:47:27.830Z,6.50
2022-09-20T03:50:03.664Z,6.70
2022-09-20T03:52:51.956Z,6.70
2022-09-20T03:55:22.533Z,6.70
2022-09-20T03:57:58.747Z,6.60
2022-09-20T04:00:43.909Z,6.60
2022-09-20T04:03:13.783Z,6.70
2022-09-20T04:05:40.656Z,6.70
2022-09-20T04:08:26.241Z,6.70
2022-09-20T04:11:15.746Z,6.70
2022-09-20T04:13:45.596Z,6.60
2022-09-20T04:16:12.742Z,6.50
2022-09-20T04:18:51.841Z,6.60
2022-09-20T04:21:23.698Z,6.50
2022-09-20T04:23:59.593Z,6.50
2022-09-20T04:26:27.843Z,6.50
2022-09-20T04:29:01.909Z,6.60
2022-09-20T04:31:37.799Z,6.60
2022-09-20T04:34:07.005Z,6.60
2022-09-20T04:36:52.758Z,6.70
2022-09-20T04:39:42.437Z,6.60
2022-09-20T04:42:28.771Z,6.60
2022-09-20T04:45:03.429Z,6.50
2022-09-20T04:47:43.441Z,6.50
2022-09-20T04:50:13.208Z,6.60
2022-09-20T04:52:46.071Z,6.60
2022-09-20T04:55:28.791Z,6.60
2022-09-20T04:57:58.409Z,6.70
2022-09-20T05:00:28.760Z,6.60
2022-09-20T05:03:23.048Z,6.70
2022-09-20T05:06:05.297Z,6.70
2022-09-20T05:08:35.067Z,6.60
2022-09-20T05:11:14.209Z,6.60
2022-09-20T05:14:01.061Z,6.60
2022-09-20T05:16:33.726Z,6.60
2022-09-20T05:19:16.953Z,6.60
2022-09-20T05:22:19.133Z,6.60
2022-09-20T05:24:48.585Z,6.70
2022-09-20T05:27:33.700Z,6.70
2022-09-20T05:30:07.062Z,6.80
2022-09-20T05:32:40.007Z,7.00
2022-09-20T05:35:12.875Z,7.20
2022-09-20T05:37:58.330Z,7.30
2022-09-20T05:40:43.664Z,7.40
2022-09-20T05:43:16.244Z,7.50
2022-09-20T05:45:42.922Z,7.50
2022-09-20T05:48:13.529Z,7.50
2022-09-20T05:50:56.201Z,7.60
2022-09-20T05:53:33.530Z,7.60
2022-09-20T05:56:09.280Z,7.60
2022-09-20T05:58:42.359Z,7.60
2022-09-20T06:01:14.905Z,7.70
2022-09-20T06:03:46.372Z,7.80
2022-09-20T06:06:22.615Z,7.80
2022-09-20T06:09:07.983Z,7.90
2022-09-20T06:11:48.569Z,8.00
2022-09-20T06:14:15.170Z,8.10
2022-09-20T06:16:47.900Z,8.20
2022-09-20T06:19:17.545Z,8.20
2022-09-20T06:21:49.861Z,8.10
2022-09-20T06:24:21.887Z,10.10
2022-09-20T06:26:50.269Z,8.10
2022-09-20T06:29:19.130Z,8.10
2022-09-20T06:31:45.670Z,8.10
2022-09-20T06:34:14.397Z,8.10
2022-09-20T06:37:04.916Z,8.20
2022-09-20T06:39:50.347Z,8.20
2022-09-20T06:42:16.956Z,8.40
2022-09-20T06:44:43.564Z,8.60
2022-09-20T06:47:10.968Z,9.80
2022-09-20T06:49:37.716Z,8.90
2022-09-20T06:52:05.137Z,9.00
2022-09-20T06:54:32.006Z,10.30
2022-09-20T06:57:00.310Z,9.30
2022-09-20T06:59:27.339Z,9.30
2022-09-20T07:01:53.943Z,9.50
2022-09-20T07:04:22.225Z,10.70
2022-09-20T07:06:48.764Z,9.50
2022-09-20T07:09:15.436Z,9.60
2022-09-20T07:11:43.052Z,9.80
2022-09-20T07:14:09.670Z,9.80
2022-09-20T07:16:37.209Z,10.00
2022-09-20T07:19:05.317Z,10.00
2022-09-20T07:21:31.885Z,9.90
2022-09-20T07:23:58.678Z,10.00
2022-09-20T07:26:26.933Z,10.80
2022-09-20T07:28:54.606Z,10.00
2022-09-20T07:31:22.911Z,10.00
2022-09-20T07:33:49.611Z,9.90
2022-09-20T07:36:16.587Z,9.80
2022-09-20T07:38:46.939Z,9.80
2022-09-20T07:41:13.981Z,9.70
2022-09-20T07:43:40.525Z,10.80
2022-09-20T07:46:07.165Z,9.70
2022-09-20T07:48:35.227Z,9.70
2022-09-20T07:51:06.730Z,9.70
2022-09-20T07:53:35.244Z,9.60
2022-09-20T07:56:03.372Z,10.20
2022-09-20T07:58:30.795Z,9.60
2022-09-20T08:01:01.838Z,9.60
2022-09-20T08:03:32.471Z,9.60
2022-09-20T08:06:04.126Z,9.60
2022-09-20T08:08:38.033Z,9.70
2022-09-20T08:11:06.443Z,9.80
2022-09-20T08:16:24.180Z,9.90
2022-09-20T08:18:58.760Z,10.00
2022-09-20T08:21:26.597Z,10.00
2022-09-20T08:23:53.814Z,10.10
2022-09-20T08:26:21.853Z,10.10
2022-09-20T08:28:52.235Z,10.10
2022-09-20T08:31:19.733Z,10.20
2022-09-20T08:33:47.012Z,10.20
2022-09-20T08:36:15.782Z,11.10
2022-09-20T08:41:34.452Z,11.20
2022-09-20T08:44:26.467Z,10.50
2022-09-20T08:47:03.076Z,10.60
2022-09-20T08:49:30.187Z,10.70
2022-09-20T08:51:58.208Z,10.80
2022-09-20T08:54:26.112Z,10.80
2022-09-20T08:56:53.346Z,10.80
2022-09-20T08:59:21.010Z,10.80
2022-09-20T09:01:48.738Z,10.80
2022-09-20T09:04:15.323Z,10.70
2022-09-20T09:06:42.832Z,10.70
2022-09-20T09:09:17.458Z,10.90
2022-09-20T09:11:45.907Z,10.80
2022-09-20T09:14:51.288Z,12.40
2022-09-20T09:17:28.189Z,11.10
2022-09-20T09:19:56.164Z,11.20
2022-09-20T09:22:26.296Z,12.30
2022-09-20T09:25:08.089Z,11.40
2022-09-20T09:27:35.392Z,11.40
2022-09-20T09:30:02.151Z,12.10
2022-09-20T09:32:30.989Z,11.50
2022-09-20T09:35:18.451Z,12.50
2022-09-20T09:37:53.409Z,11.60
2022-09-20T09:40:20.133Z,11.70
2022-09-20T09:42:54.593Z,11.90
2022-09-20T09:45:30.482Z,12.00
2022-09-20T09:47:59.498Z,12.10
2022-09-20T09:50:28.255Z,12.10
2022-09-20T09:52:59.226Z,12.20
2022-09-20T09:55:43.340Z,12.10
2022-09-20T09:58:16.641Z,12.10
2022-09-20T10:00:46.663Z,12.10
2022-09-20T10:03:31.962Z,12.20
2022-09-20T10:06:05.102Z,12.10
2022-09-20T10:08:54.841Z,12.10
2022-09-20T10:11:33.678Z,12.00
2022-09-20T10:14:03.961Z,12.00
2022-09-20T10:16:32.100Z,14.30
2022-09-20T10:19:01.861Z,12.10
2022-09-20T10:21:31.417Z,12.10
2022-09-20T10:24:30.920Z,12.30
2022-09-20T10:27:06.751Z,12.50
2022-09-20T10:29:46.856Z,12.60
2022-09-20T10:32:35.169Z,12.70
2022-09-20T10:35:25.181Z,12.70
2022-09-20T10:37:54.743Z,12.70
2022-09-20T10:40:58.939Z,12.70
2022-09-20T10:43:44.205Z,12.70
2022-09-20T10:46:46.304Z,12.60
2022-09-20T10:49:24.963Z,12.60
2022-09-20T10:52:09.842Z,12.70
2022-09-20T10:54:46.045Z,12.70
2022-09-20T10:57:16.232Z,12.70
2022-09-20T10:59:48.268Z,12.70
2022-09-20T11:02:20.991Z,12.70
2022-09-20T11:04:59.459Z,12.60
2022-09-20T11:07:44.638Z,12.60
2022-09-20T11:13:22.458Z,12.60
2022-09-20T11:15:56.062Z,12.60
2022-09-20T11:18:24.679Z,12.70
2022-09-20T11:21:03.067Z,12.70
2022-09-20T11:23:44.430Z,15.40
2022-09-20T11:26:13.128Z,12.80
2022-09-20T11:28:44.130Z,13.00
2022-09-20T11:31:14.141Z,13.10
2022-09-20T11:33:52.377Z,13.10
2022-09-20T11:36:30.375Z,13.10
2022-09-20T11:39:15.388Z,13.10
2022-09-20T11:41:42.630Z,13.10
2022-09-20T11:44:15.820Z,13.10
2022-09-20T11:46:47.137Z,13.10
2022-09-20T11:49:21.188Z,13.10
2022-09-20T11:51:54.066Z,13.00
2022-09-20T11:54:36.208Z,13.10
2022-09-20T11:57:03.283Z,13.20
2022-09-20T11:59:37.462Z,13.30
2022-09-20T12:02:12.681Z,13.20
2022-09-20T12:04:43.473Z,13.10
2022-09-20T12:07:23.773Z,13.10
2022-09-20T12:09:55.416Z,13.10
2022-09-20T12:12:30.982Z,13.10
2022-09-20T12:14:58.726Z,13.20
2022-09-20T12:17:44.149Z,14.00
2022-09-20T12:20:29.635Z,13.30
2022-09-20T12:23:16.878Z,13.40
2022-09-20T12:26:00.428Z,16.60
2022-09-20T12:28:50.228Z,14.50
2022-09-20T12:31:20.239Z,13.20
2022-09-20T12:34:02.157Z,13.20
2022-09-20T12:36:29.990Z,13.30
2022-09-20T12:39:11.973Z,13.20
2022-09-20T12:41:57.222Z,13.20
2022-09-20T12:44:39.348Z,13.10
2022-09-20T12:47:12.068Z,13.10
2022-09-20T12:49:57.342Z,13.10
2022-09-20T12:52:44.269Z,12.90
2022-09-20T12:55:11.987Z,12.80
2022-09-20T12:57:39.541Z,12.80
2022-09-20T13:00:07.511Z,12.80
2022-09-20T13:02:52.871Z,12.70
2022-09-20T13:05:32.954Z,12.80
2022-09-20T13:08:03.002Z,12.90
2022-09-20T13:10:31.155Z,13.30
2022-09-20T13:13:00.080Z,13.50
2022-09-20T13:15:27.141Z,13.60
2022-09-20T13:17:55.044Z,13.70
2022-09-20T13:20:24.390Z,15.60
2022-09-20T13:22:52.310Z,16.10
2022-09-20T13:25:21.406Z,14.00
2022-09-20T13:27:57.287Z,14.10
2022-09-20T13:30:25.781Z,14.10
2022-09-20T13:32:52.454Z,14.20
2022-09-20T13:35:21.545Z,14.30
2022-09-20T13:37:53.656Z,16.60
2022-09-20T13:40:25.424Z,14.00
2022-09-20T13:43:12.986Z,14.00
2022-09-20T13:45:41.882Z,13.90
2022-09-20T13:48:08.737Z,13.90
2022-09-20T13:50:40.033Z,13.90
2022-09-20T13:53:33.587Z,13.80
2022-09-20T13:56:10.111Z,14.10
2022-09-20T13:58:37.302Z,13.60
2022-09-20T14:01:06.441Z,14.20
2022-09-20T14:03:34.573Z,13.60
2022-09-20T14:06:07.609Z,14.10
2022-09-20T14:08:39.154Z,16.20
2022-09-20T14:11:22.784Z,13.40
2022-09-20T14:13:58.047Z,13.40
2022-09-20T14:16:27.905Z,13.30
2022-09-20T14:18:55.066Z,13.80
2022-09-20T14:21:23.275Z,13.30
2022-09-20T14:23:58.200Z,13.20
2022-09-20T14:26:26.543Z,13.20
2022-09-20T14:28:53.485Z,13.50
2022-09-20T14:31:22.201Z,14.20
2022-09-20T14:33:54.955Z,13.00
2022-09-20T14:36:23.581Z,13.00
2022-09-20T14:38:52.252Z,14.70
2022-09-20T14:41:51.641Z,12.90
2022-09-20T14:44:33.838Z,12.90
2022-09-20T14:47:13.067Z,12.80
2022-09-20T14:49:42.787Z,15.20
2022-09-20T14:52:27.955Z,12.80
2022-09-20T14:55:01.265Z,12.80
2022-09-20T14:57:28.396Z,12.90
2022-09-20T14:59:57.223Z,12.90
2022-09-20T15:02:24.643Z,14.20
2022-09-20T15:04:54.231Z,12.90
2022-09-20T15:07:21.201Z,12.80
2022-09-20T15:09:48.475Z,14.10
2022-09-20T15:12:16.763Z,12.80
2022-09-20T15:14:43.393Z,12.90
2022-09-20T15:17:16.212Z,12.90
2022-09-20T15:19:42.884Z,12.90
2022-09-20T15:22:12.499Z,12.90
2022-09-20T15:24:39.164Z,12.90
2022-09-20T15:27:05.815Z,12.40
2022-09-20T15:29:32.697Z,12.90
2022-09-20T15:31:59.739Z,13.40
2022-09-20T15:34:26.383Z,13.20
2022-09-20T15:36:54.604Z,15.40
2022-09-20T15:39:22.418Z,15.30
2022-09-20T15:41:51.695Z,12.80
2022-09-20T15:44:18.395Z,14.20
2022-09-20T15:46:44.949Z,12.70
2022-09-20T15:49:12.048Z,12.70
2022-09-20T15:51:39.041Z,13.70
2022-09-20T15:54:07.606Z,12.50
2022-09-20T15:56:36.118Z,12.40
2022-09-20T15:59:06.986Z,12.40
2022-09-20T16:01:38.363Z,12.30
2022-09-20T16:04:21.188Z,12.20
2022-09-20T16:06:49.511Z,12.20
2022-09-20T16:09:16.210Z,12.80
2022-09-20T16:11:42.776Z,12.00
2022-09-20T16:14:09.408Z,12.90
2022-09-20T16:16:40.058Z,11.90
2022-09-20T16:19:24.908Z,12.10
2022-09-20T16:21:57.673Z,11.90
2022-09-20T16:24:29.761Z,11.90
2022-09-20T16:26:57.164Z,11.80
2022-09-20T16:29:25.711Z,12.00
2022-09-20T16:31:53.499Z,11.60
2022-09-20T16:34:21.120Z,11.60
2022-09-20T16:36:55.612Z,12.90
2022-09-20T16:39:28.973Z,11.30
2022-09-20T16:42:06.241Z,11.30
2022-09-20T16:44:34.066Z,11.20
2022-09-20T16:47:01.168Z,11.20
2022-09-20T16:49:27.910Z,11.20
2022-09-20T16:51:54.708Z,11.10
2022-09-20T16:54:21.470Z,12.50
2022-09-20T16:56:49.202Z,11.00
2022-09-20T16:59:16.809Z,11.00
2022-09-20T17:01:43.950Z,8.50
2022-09-20T17:04:13.394Z,13.20
2022-09-20T17:06:40.322Z,10.90
2022-09-20T17:09:07.107Z,10.80
2022-09-20T17:11:35.851Z,10.70
2022-09-20T17:14:02.942Z,10.60
2022-09-20T17:16:30.745Z,10.40
2022-09-20T17:19:01.444Z,10.30
2022-09-20T17:21:29.187Z,10.20
2022-09-20T17:23:57.506Z,10.20
2022-09-20T17:26:25.242Z,10.10
2022-09-20T17:28:53.705Z,10.10
2022-09-20T17:31:22.992Z,10.10
2022-09-20T17:33:50.202Z,10.00
2022-09-20T17:36:18.953Z,10.00
2022-09-20T17:38:46.693Z,10.00
2022-09-20T17:41:17.002Z,9.90
2022-09-20T17:43:44.415Z,9.90
2022-09-20T17:46:15.550Z,9.90
2022-09-20T17:48:42.965Z,9.90
2022-09-20T17:51:12.727Z,9.90
2022-09-20T17:53:39.451Z,9.90
2022-09-20T17:56:06.132Z,10.00
2022-09-20T17:58:37.262Z,9.90
2022-09-20T18:01:12.413Z,9.90
2022-09-20T18:03:40.423Z,9.90
2022-09-20T18:06:18.380Z,9.90
2022-09-20T18:08:45.611Z,10.00
2022-09-20T18:11:12.230Z,10.00
2022-09-20T18:13:38.877Z,10.00
2022-09-20T18:16:09.650Z,10.10
2022-09-20T18:18:36.372Z,10.00
2022-09-20T18:21:22.586Z,10.10
2022-09-20T18:23:49.546Z,10.10
2022-09-20T18:26:22.127Z,11.50
2022-09-20T18:28:54.952Z,10.10
2022-09-20T18:31:21.870Z,10.10
2022-09-20T18:33:49.765Z,10.20
2022-09-20T18:36:16.794Z,10.20
2022-09-20T18:38:45.034Z,10.30
2022-09-20T18:41:14.399Z,10.30
2022-09-20T18:43:44.113Z,10.30
2022-09-20T18:46:11.469Z,10.40
2022-09-20T18:48:40.970Z,11.90
2022-09-20T18:51:08.557Z,10.40
2022-09-20T18:53:36.620Z,10.40
2022-09-20T18:56:07.648Z,10.40
2022-09-20T18:58:34.630Z,10.30
2022-09-20T19:01:13.485Z,10.30
2022-09-20T19:03:50.211Z,10.30
2022-09-20T19:06:18.416Z,10.30
2022-09-20T19:08:50.277Z,10.30
2022-09-20T19:11:27.775Z,10.30
2022-09-20T19:14:03.668Z,10.30
2022-09-20T19:16:34.465Z,10.20
2022-09-20T19:19:13.468Z,10.20
2022-09-20T19:21:45.697Z,10.20
2022-09-20T19:24:18.493Z,10.20
2022-09-20T19:26:45.648Z,10.10
2022-09-20T19:29:20.009Z,10.10
2022-09-20T19:31:47.328Z,10.10
2022-09-20T19:34:21.394Z,10.10
2022-09-20T19:37:05.942Z,10.00
2022-09-20T19:39:51.476Z,10.00
2022-09-20T19:42:24.489Z,9.90
2022-09-20T19:45:00.335Z,9.90
2022-09-20T19:47:26.990Z,9.90
2022-09-20T19:49:55.258Z,9.90
2022-09-20T19:52:22.719Z,9.90
2022-09-20T19:54:52.288Z,9.90
2022-09-20T19:57:23.026Z,9.80
2022-09-20T19:59:50.933Z,9.80
2022-09-20T20:02:18.505Z,9.80
2022-09-20T20:04:45.426Z,9.80
2022-09-20T20:07:34.952Z,9.80
2022-09-20T20:10:05.921Z,9.80
2022-09-20T20:12:32.518Z,9.70
2022-09-20T20:15:07.672Z,9.70
2022-09-20T20:17:44.001Z,9.70
2022-09-20T20:20:24.079Z,9.70
2022-09-20T20:23:02.940Z,9.60
2022-09-20T20:25:59.924Z,9.60
2022-09-20T20:28:27.355Z,9.60
2022-09-20T20:30:56.667Z,9.60
2022-09-20T20:33:26.846Z,9.60
2022-09-20T20:35:54.302Z,9.60
2022-09-20T20:38:26.410Z,9.60
2022-09-20T20:41:00.814Z,9.50
2022-09-20T20:43:28.089Z,9.50
2022-09-20T20:45:54.711Z,9.50
2022-09-20T20:48:21.625Z,9.50
2022-09-20T20:50:48.272Z,10.60
2022-09-20T20:53:14.908Z,9.50
2022-09-20T20:55:41.540Z,9.50
2022-09-20T20:58:08.671Z,9.40
2022-09-20T21:00:35.251Z,9.40
2022-09-20T21:03:02.938Z,9.30
2022-09-20T21:05:29.987Z,9.30
2022-09-20T21:07:57.878Z,9.20
2022-09-20T21:10:24.531Z,9.20
2022-09-20T21:12:54.090Z,9.10
2022-09-20T21:15:21.577Z,9.10
2022-09-20T21:17:51.970Z,9.00
2022-09-20T21:20:18.681Z,9.00
2022-09-20T21:22:45.217Z,8.90
2022-09-20T21:25:11.802Z,8.90
2022-09-20T21:27:38.397Z,8.90
2022-09-20T21:30:05.210Z,9.10
2022-09-20T21:32:32.036Z,8.70
2022-09-20T21:34:59.324Z,8.60
2022-09-20T21:37:25.875Z,8.50
2022-09-20T21:39:54.377Z,8.50
2022-09-20T21:42:20.933Z,8.40
2022-09-20T21:44:47.487Z,8.30
2022-09-20T21:47:20.044Z,8.10
2022-09-20T21:49:47.513Z,8.00
2022-09-20T21:52:14.254Z,8.00
2022-09-20T21:54:40.986Z,9.00
2022-09-20T21:57:07.899Z,7.90
2022-09-20T21:59:34.467Z,8.00
2022-09-20T22:02:01.015Z,7.90
2022-09-20T22:04:29.107Z,7.90
2022-09-20T22:06:55.765Z,7.80
2022-09-20T22:09:24.146Z,7.80
2022-09-20T22:11:50.720Z,7.70
2022-09-20T22:14:19.402Z,7.70
2022-09-20T22:16:46.653Z,7.70
2022-09-20T22:19:14.938Z,7.70
2022-09-20T22:21:42.888Z,7.70
2022-09-20T22:24:10.430Z,7.70
2022-09-20T22:26:41.206Z,8.90
2022-09-20T22:29:08.014Z,7.60
2022-09-20T22:31:39.011Z,7.50
2022-09-20T22:34:06.428Z,7.40
2022-09-20T22:36:34.680Z,7.40
2022-09-20T22:39:01.718Z,7.30
2022-09-20T22:41:28.613Z,7.30
2022-09-20T22:43:55.416Z,7.30
2022-09-20T22:46:23.264Z,7.20
2022-09-20T22:48:49.913Z,7.10
2022-09-20T22:51:23.952Z,7.10
2022-09-20T22:53:52.160Z,7.00
2022-09-20T22:56:19.225Z,7.00
2022-09-20T22:58:47.476Z,6.90
2022-09-20T23:01:15.407Z,6.80
2022-09-20T23:03:43.394Z,6.80
2022-09-20T23:06:14.252Z,6.70
2022-09-20T23:08:40.781Z,6.60
2022-09-20T23:11:07.666Z,6.60
2022-09-20T23:13:34.665Z,6.60
2022-09-20T23:16:09.361Z,6.50
2022-09-20T23:18:35.898Z,6.50
2022-09-20T23:21:02.439Z,6.50
2022-09-20T23:23:29.417Z,6.50
2022-09-20T23:25:56.437Z,6.50
2022-09-20T23:28:23.336Z,6.50
2022-09-20T23:30:49.920Z,6.40
2022-09-20T23:33:16.603Z,6.40
2022-09-20T23:35:44.415Z,6.30
2022-09-20T23:38:11.275Z,6.30
2022-09-20T23:40:38.147Z,6.30
2022-09-20T23:43:04.896Z,6.20
2022-09-20T23:45:31.493Z,6.10
2022-09-20T23:47:58.111Z,6.10
2022-09-20T23:50:24.798Z,6.10
2022-09-20T23:52:51.313Z,6.00
2022-09-20T23:55:17.888Z,6.00
2022-09-20T23:57:44.497Z,5.90
